Saint Louis, MO (63141)

6:40 PM CST on February 12, 2016 (GMT -0600)
Creve Coeur | | Change Station
CLOSE
Current Station
Personal Weather Station
Location: Saint Louis, MO
Elevation: 636 ft
Nearby Weather Stations

Elev 636 ft 38.66 °N, 90.44 °W | Updated 2 seconds ago

Partly Cloudy
Partly Cloudy
27.3 °F
Feels Like 27 °F
N
2.9
Wind Variable Wind from NW
Gusts 4.9 mph

Today
High -- | Low -- °F
--% Chance of Precip.
Yesterday
High -- | Low -- °F
Precip. -- in
Pressure 30.45 in
Visibility 10.0 miles
Clouds Few 2400 ft
Scattered Clouds 25000 ft
Windchill 27 °F
Dew Point 7 °F
Humidity 41%
Rainfall 0.00 in
Snow Depth Not available.
6:56 AM 5:35 PM
Waxing Crescent, 25% visible
METAR KSTL 122351Z COR 33010KT 10SM FEW024 SCT250 M02/M10 A3041 RMK AO2 SLP311 60000 T10221100 10006 21022 53028
Pressure 30.45 in
Visibility 10.0 miles
Clouds Few 2400 ft
Scattered Clouds 25000 ft
Windchill 27 °F
Dew Point 7 °F
Humidity 41%
Rainfall 0.00 in
Snow Depth Not available.
6:56 AM 5:35 PM
Waxing Crescent, 25% visible
METAR KSTL 122351Z COR 33010KT 10SM FEW024 SCT250 M02/M10 A3041 RMK AO2 SLP311 60000 T10221100 10006 21022 53028

10-Day Weather Forecast

Almanac

Astronomy

Feb. 12, 2016 Rise Set
Actual Time
Civil Twilight
Nautical Twilight
Astronomical Twilight
Moon
Length of Visible Light
Length of Day
Tomorrow will be .
, % of the Moon is Illuminated

Today's Extremes

State Highs State Lows

Community

WunderPhotos

Upload Photos

1,892,444 photos uploaded!

WunderBlog® & News

Nearby

Air Quality

  Air Quality AQ Index Pollutant
Not available.

Snow Depth

Station Depth Elevation

Earthquake Activity

City Distance Mag. Time & Date
Minimum magnitude displayed is 2.5.

Coastal Water Temperatures

Place Temperature

Stations

Nearby Weather Stations

Station Location Temp. Windchill Dew Point Humidity Wind Precip. Elev Updated Type
                   

Watches & Warnings

There are currently no watches in effect.